Onley, Virginia
Current Conditions -  °F | °C
As of 7:35 AM on Friday 24 Oct 2014 (Local Time) from KMFV Reporting Station
Clear Clear  
Wind Chill: 55°   Ceiling: Unl
Heat Index: 55°   Visibility: 10mi
Dew Point: 43°   Wind: 14mph
Humidity: 63%   Direction: 300°WNW
Pressure: 29.92"   Gusts: 18mph
Location:  37.69°N, 75.72°W
Report Text: KMFV 241135Z AUTO 30012G16KT 10SM CLR 13/06 A2992 RMK AO2
Loading
Personal Weather Stations






























Interactive Weather Map New forecast layout! Learn more

10-Day Weather Forecast

Advertisements
Track Severe Weather on mobile